createdAt,value
2023-11-19T00:02:40.780Z,100.00
2023-11-19T00:07:44.393Z,100.00
2023-11-19T00:12:49.379Z,100.00
2023-11-19T00:17:52.294Z,100.00
2023-11-19T00:22:58.137Z,100.00
2023-11-19T00:28:01.193Z,100.00
2023-11-19T00:33:04.011Z,100.00
2023-11-19T00:38:06.785Z,100.00
2023-11-19T00:43:10.393Z,100.00
2023-11-19T00:48:13.470Z,100.00
2023-11-19T00:53:15.763Z,100.00
2023-11-19T00:58:19.463Z,100.00
2023-11-19T01:03:22.635Z,100.00
2023-11-19T01:08:26.052Z,100.00
2023-11-19T01:13:28.785Z,100.00
2023-11-19T01:18:31.436Z,100.00
2023-11-19T01:23:35.479Z,100.00
2023-11-19T01:28:51.893Z,100.00
2023-11-19T01:33:55.669Z,100.00
2023-11-19T01:38:58.496Z,100.00
2023-11-19T01:44:01.703Z,100.00
2023-11-19T01:49:05.331Z,100.00
2023-11-19T01:54:09.705Z,100.00
2023-11-19T01:59:15.197Z,100.00
2023-11-19T02:04:18.274Z,100.00
2023-11-19T02:09:21.432Z,100.00
2023-11-19T02:14:27.682Z,100.00
2023-11-19T02:19:30.609Z,100.00
2023-11-19T02:24:35.691Z,100.00
2023-11-19T02:29:38.973Z,100.00
2023-11-19T02:34:41.833Z,100.00
2023-11-19T02:39:45.353Z,100.00
2023-11-19T02:44:47.776Z,100.00
2023-11-19T02:49:50.116Z,100.00
2023-11-19T02:54:53.238Z,100.00
2023-11-19T02:59:57.561Z,100.00
2023-11-19T03:05:01.295Z,100.00
2023-11-19T03:10:07.024Z,100.00
2023-11-19T03:15:13.634Z,100.00
2023-11-19T03:20:18.792Z,100.00
2023-11-19T03:25:21.602Z,100.00
2023-11-19T03:30:34.241Z,100.00
2023-11-19T03:35:37.612Z,100.00
2023-11-19T03:40:40.410Z,100.00
2023-11-19T03:45:42.681Z,100.00
2023-11-19T03:50:45.666Z,100.00
2023-11-19T03:55:48.567Z,100.00
2023-11-19T04:00:51.004Z,100.00
2023-11-19T04:05:53.928Z,100.00
2023-11-19T04:10:56.753Z,100.00
2023-11-19T04:15:59.631Z,100.00
2023-11-19T04:21:02.374Z,100.00
2023-11-19T04:31:11.342Z,100.00
2023-11-19T04:36:20.442Z,100.00
2023-11-19T04:41:23.284Z,100.00
2023-11-19T04:46:26.193Z,100.00
2023-11-19T04:51:28.528Z,100.00
2023-11-19T04:56:31.236Z,100.00
2023-11-19T05:01:34.910Z,100.00
2023-11-19T05:06:39.026Z,100.00
2023-11-19T05:16:47.740Z,100.00
2023-11-19T05:21:53.753Z,100.00
2023-11-19T05:26:56.026Z,100.00
2023-11-19T05:31:58.878Z,100.00
2023-11-19T05:37:01.631Z,100.00
2023-11-19T05:42:04.165Z,100.00
2023-11-19T05:47:07.219Z,100.00
2023-11-19T05:52:11.116Z,100.00
2023-11-19T05:57:15.297Z,100.00
2023-11-19T06:02:17.843Z,100.00
2023-11-19T06:07:21.327Z,100.00
2023-11-19T06:12:24.624Z,100.00
2023-11-19T06:17:27.334Z,100.00
2023-11-19T06:22:30.183Z,100.00
2023-11-19T06:27:32.889Z,100.00
2023-11-19T06:32:35.299Z,100.00
2023-11-19T06:37:40.796Z,100.00
2023-11-19T06:42:43.721Z,100.00
2023-11-19T06:47:46.464Z,100.00
2023-11-19T06:52:49.349Z,100.00
2023-11-19T06:57:52.059Z,100.00
2023-11-19T07:02:55.111Z,100.00
2023-11-19T07:07:58.032Z,100.00
2023-11-19T07:13:01.600Z,100.00
2023-11-19T07:18:04.805Z,100.00
2023-11-19T07:23:08.449Z,100.00
2023-11-19T07:28:11.366Z,100.00
2023-11-19T07:33:15.088Z,100.00
2023-11-19T07:38:17.696Z,100.00
2023-11-19T07:43:20.548Z,100.00
2023-11-19T07:48:24.948Z,100.00
2023-11-19T07:53:27.752Z,100.00
2023-11-19T07:58:30.469Z,100.00
2023-11-19T08:03:33.641Z,100.00
2023-11-19T08:08:37.035Z,100.00
2023-11-19T08:13:39.853Z,100.00
2023-11-19T08:18:44.960Z,100.00
2023-11-19T08:23:47.537Z,100.00
2023-11-19T08:28:50.466Z,100.00
2023-11-19T08:33:53.391Z,100.00
2023-11-19T08:38:56.337Z,100.00
2023-11-19T08:43:59.249Z,100.00
2023-11-19T08:49:02.037Z,100.00
2023-11-19T08:54:05.180Z,100.00
2023-11-19T08:59:07.974Z,100.00
2023-11-19T09:04:10.779Z,91.78
2023-11-19T09:09:13.765Z,79.31
2023-11-19T09:14:16.972Z,62.17
2023-11-19T09:19:19.738Z,59.74
2023-11-19T09:24:22.490Z,67.21
2023-11-19T09:29:25.378Z,58.41
2023-11-19T09:34:28.048Z,63.94
2023-11-19T09:39:30.619Z,62.87
2023-11-19T09:44:34.184Z,68.52
2023-11-19T09:49:37.738Z,61.77
2023-11-19T09:54:41.746Z,58.59
2023-11-19T09:59:45.730Z,56.67
2023-11-19T10:04:50.124Z,54.72
2023-11-19T10:09:52.785Z,53.40
2023-11-19T10:14:59.766Z,53.10
2023-11-19T10:20:06.126Z,52.28
2023-11-19T10:25:35.704Z,53.54
2023-11-19T10:30:38.611Z,53.14
2023-11-19T10:36:02.596Z,55.03
2023-11-19T10:41:06.741Z,59.54
2023-11-19T10:46:14.629Z,64.56
2023-11-19T10:51:25.293Z,67.50
2023-11-19T10:56:35.942Z,69.10
2023-11-19T11:01:46.778Z,76.03
2023-11-19T11:06:51.606Z,74.85
2023-11-19T11:11:56.086Z,77.03
2023-11-19T11:17:00.355Z,76.95
2023-11-19T11:22:06.285Z,76.64
2023-11-19T11:27:31.081Z,77.55
2023-11-19T11:32:55.606Z,74.92
2023-11-19T11:38:05.095Z,77.07
2023-11-19T11:43:47.628Z,78.89
2023-11-19T11:48:52.139Z,78.91
2023-11-19T11:53:55.975Z,80.54
2023-11-19T11:59:01.002Z,80.48
2023-11-19T12:04:06.456Z,80.41
2023-11-19T12:09:09.644Z,77.97
2023-11-19T12:14:11.938Z,77.94
2023-11-19T12:19:14.974Z,78.15
2023-11-19T12:24:18.647Z,79.69
2023-11-19T12:29:22.450Z,79.26
2023-11-19T12:34:25.947Z,75.79
2023-11-19T12:39:34.018Z,75.76
2023-11-19T12:44:36.708Z,76.13
2023-11-19T12:49:38.980Z,75.55
2023-11-19T12:54:41.803Z,75.34
2023-11-19T12:59:44.529Z,76.83
2023-11-19T13:04:47.881Z,76.71
2023-11-19T13:09:50.678Z,75.78
2023-11-19T13:14:54.700Z,76.76
2023-11-19T13:19:58.471Z,75.70
2023-11-19T13:25:02.458Z,77.73
2023-11-19T13:30:08.408Z,100.00
2023-11-19T13:35:11.256Z,100.00
2023-11-19T13:40:17.259Z,78.88
2023-11-19T13:45:22.151Z,100.00
2023-11-19T13:50:24.953Z,100.00
2023-11-19T13:55:28.990Z,92.84
2023-11-19T14:00:31.880Z,100.00
2023-11-19T14:05:38.147Z,100.00
2023-11-19T14:10:41.610Z,100.00
2023-11-19T14:15:45.190Z,100.00
2023-11-19T14:20:48.795Z,100.00
2023-11-19T14:25:52.081Z,100.00
2023-11-19T14:30:58.553Z,100.00
2023-11-19T14:36:01.488Z,100.00
2023-11-19T14:41:04.369Z,100.00
2023-11-19T14:46:08.276Z,100.00
2023-11-19T14:51:11.078Z,100.00
2023-11-19T14:56:17.511Z,100.00
2023-11-19T15:01:20.637Z,100.00
2023-11-19T15:06:28.635Z,100.00
2023-11-19T15:11:31.542Z,100.00
2023-11-19T15:16:36.024Z,100.00
2023-11-19T15:21:38.736Z,100.00
2023-11-19T15:26:41.559Z,100.00
2023-11-19T15:31:44.312Z,100.00
2023-11-19T15:36:47.924Z,100.00
2023-11-19T15:41:50.584Z,100.00
2023-11-19T15:46:55.114Z,100.00
2023-11-19T15:51:57.693Z,100.00
2023-11-19T15:57:00.464Z,100.00
2023-11-19T16:02:03.419Z,100.00
2023-11-19T16:07:06.891Z,100.00
2023-11-19T16:12:10.433Z,100.00
2023-11-19T16:17:13.281Z,100.00
2023-11-19T16:22:16.259Z,100.00
2023-11-19T16:32:24.555Z,100.00
2023-11-19T16:37:27.605Z,100.00
2023-11-19T16:42:30.514Z,100.00
2023-11-19T16:47:34.354Z,100.00
2023-11-19T16:52:37.195Z,100.00
2023-11-19T16:57:45.294Z,100.00
2023-11-19T17:07:53.936Z,100.00
2023-11-19T17:12:56.737Z,100.00
2023-11-19T17:17:59.125Z,100.00
2023-11-19T17:23:06.579Z,100.00
2023-11-19T17:28:10.758Z,100.00
2023-11-19T17:33:12.998Z,100.00
2023-11-19T17:43:21.401Z,100.00
2023-11-19T17:48:24.111Z,100.00
2023-11-19T17:53:27.101Z,100.00
2023-11-19T17:58:30.005Z,100.00
2023-11-19T18:03:33.734Z,100.00
2023-11-19T18:08:37.858Z,100.00
2023-11-19T18:13:40.272Z,100.00
2023-11-19T18:18:43.230Z,100.00
2023-11-19T18:23:47.249Z,100.00
2023-11-19T18:28:50.431Z,100.00
2023-11-19T18:33:52.822Z,100.00
2023-11-19T18:38:55.260Z,100.00
2023-11-19T18:43:58.066Z,100.00
2023-11-19T18:49:01.800Z,100.00
2023-11-19T18:54:04.992Z,100.00
2023-11-19T18:59:13.241Z,100.00
2023-11-19T19:04:16.174Z,100.00
2023-11-19T19:09:23.221Z,100.00
2023-11-19T19:14:26.085Z,100.00
2023-11-19T19:19:29.392Z,100.00
2023-11-19T19:24:32.339Z,100.00
2023-11-19T19:29:35.519Z,100.00
2023-11-19T19:34:38.418Z,100.00
2023-11-19T19:39:41.174Z,100.00
2023-11-19T19:44:43.932Z,100.00
2023-11-19T19:49:46.872Z,100.00
2023-11-19T19:54:49.237Z,100.00
2023-11-19T19:59:51.966Z,100.00
2023-11-19T20:10:00.281Z,100.00
2023-11-19T20:15:02.772Z,100.00
2023-11-19T20:20:07.389Z,100.00
2023-11-19T20:25:11.368Z,100.00
2023-11-19T20:30:14.567Z,100.00
2023-11-19T20:35:17.305Z,100.00
2023-11-19T20:40:20.826Z,100.00
2023-11-19T20:45:23.581Z,100.00
2023-11-19T20:50:27.466Z,100.00
2023-11-19T20:55:31.734Z,100.00
2023-11-19T21:00:38.478Z,100.00
2023-11-19T21:05:41.405Z,100.00
2023-11-19T21:10:44.138Z,100.00
2023-11-19T21:15:54.452Z,100.00
2023-11-19T21:21:01.533Z,100.00
2023-11-19T21:26:05.123Z,100.00
2023-11-19T21:31:07.665Z,100.00
2023-11-19T21:36:10.776Z,100.00
2023-11-19T21:41:15.403Z,100.00
2023-11-19T21:46:18.616Z,100.00
2023-11-19T21:51:20.856Z,100.00
2023-11-19T21:56:23.487Z,100.00
2023-11-19T22:01:26.335Z,100.00
2023-11-19T22:06:29.359Z,100.00
2023-11-19T22:11:33.806Z,100.00
2023-11-19T22:16:36.678Z,100.00
2023-11-19T22:21:39.750Z,100.00
2023-11-19T22:26:42.601Z,100.00
2023-11-19T22:31:45.461Z,100.00
2023-11-19T22:36:47.779Z,100.00
2023-11-19T22:41:50.434Z,100.00
2023-11-19T22:46:53.663Z,100.00
2023-11-19T22:51:56.472Z,100.00
2023-11-19T22:56:59.566Z,100.00
2023-11-19T23:02:02.401Z,100.00
2023-11-19T23:07:05.393Z,100.00
2023-11-19T23:12:08.838Z,100.00
2023-11-19T23:17:17.949Z,100.00
2023-11-19T23:27:27.032Z,100.00
2023-11-19T23:32:30.917Z,100.00
2023-11-19T23:37:33.674Z,100.00
2023-11-19T23:42:36.687Z,100.00
2023-11-19T23:47:39.750Z,100.00
2023-11-19T23:52:42.099Z,100.00
2023-11-19T23:57:45.446Z,100.00
